createdAt,value
2023-04-25T00:00:46.334Z,94134.00
2023-04-25T00:01:46.309Z,94132.00
2023-04-25T00:02:46.435Z,94134.00
2023-04-25T00:03:46.592Z,94132.00
2023-04-25T00:04:46.590Z,94136.00
2023-04-25T00:05:46.614Z,94136.00
2023-04-25T00:06:46.327Z,94134.00
2023-04-25T00:07:46.311Z,94134.00
2023-04-25T00:08:46.282Z,94132.00
2023-04-25T00:09:46.310Z,94136.00
2023-04-25T00:10:46.276Z,94134.00
2023-04-25T00:11:46.273Z,94136.00
2023-04-25T00:12:46.263Z,94134.00
2023-04-25T00:13:46.374Z,94134.00
2023-04-25T00:14:46.251Z,94132.00
2023-04-25T00:15:46.535Z,94132.00
2023-04-25T00:16:46.230Z,94132.00
2023-04-25T00:17:46.297Z,94132.00
2023-04-25T00:18:46.316Z,94132.00
2023-04-25T00:19:46.244Z,94130.00
2023-04-25T00:20:46.309Z,94134.00
2023-04-25T00:21:46.189Z,94134.00
2023-04-25T00:22:46.173Z,94134.00
2023-04-25T00:23:46.183Z,94134.00
2023-04-25T00:24:46.176Z,94136.00
2023-04-25T00:25:46.189Z,94134.00
2023-04-25T00:26:46.217Z,94136.00
2023-04-25T00:27:46.170Z,94138.00
2023-04-25T00:28:46.142Z,94138.00
2023-04-25T00:29:46.540Z,94138.00
2023-04-25T00:30:46.182Z,94134.00
2023-04-25T00:31:46.152Z,94136.00
2023-04-25T00:32:46.156Z,94138.00
2023-04-25T00:33:46.141Z,94138.00
2023-04-25T00:34:46.106Z,94138.00
2023-04-25T00:35:46.123Z,94134.00
2023-04-25T00:36:46.094Z,94138.00
2023-04-25T00:37:46.109Z,94138.00
2023-04-25T00:38:46.116Z,94138.00
2023-04-25T00:39:46.092Z,94136.00
2023-04-25T00:40:46.069Z,94136.00
2023-04-25T00:41:46.090Z,94134.00
2023-04-25T00:42:46.050Z,94134.00
2023-04-25T00:43:46.052Z,94130.00
2023-04-25T00:44:46.111Z,94130.00
2023-04-25T00:45:46.047Z,94132.00
2023-04-25T00:46:46.092Z,94132.00
2023-04-25T00:47:46.116Z,94132.00
2023-04-25T00:48:46.020Z,94132.00
2023-04-25T00:49:46.076Z,94132.00
2023-04-25T00:50:46.042Z,94132.00
2023-04-25T00:51:46.013Z,94130.00
2023-04-25T00:52:45.977Z,94132.00
2023-04-25T00:53:45.985Z,94132.00
2023-04-25T00:54:45.977Z,94128.00
2023-04-25T00:55:45.979Z,94126.00
2023-04-25T00:56:45.957Z,94126.00
2023-04-25T00:57:45.982Z,94118.00
2023-04-25T00:58:45.946Z,94116.00
2023-04-25T00:59:46.047Z,94112.00
2023-04-25T01:00:45.966Z,94114.00
2023-04-25T01:01:45.930Z,94112.00
2023-04-25T01:02:46.155Z,94112.00
2023-04-25T01:03:45.962Z,94112.00
2023-04-25T01:04:45.913Z,94110.00
2023-04-25T01:05:45.919Z,94106.00
2023-04-25T01:06:45.919Z,94103.00
2023-04-25T01:07:45.892Z,94099.00
2023-04-25T01:08:45.905Z,94097.00
2023-04-25T01:09:45.906Z,94095.00
2023-04-25T01:10:45.904Z,94095.00
2023-04-25T01:11:45.934Z,94093.00
2023-04-25T01:12:45.937Z,94091.00
2023-04-25T01:13:45.910Z,94095.00
2023-04-25T01:14:45.918Z,94097.00
2023-04-25T01:15:45.905Z,94097.00
2023-04-25T01:16:46.024Z,94099.00
2023-04-25T01:17:45.885Z,94103.00
2023-04-25T01:18:45.907Z,94101.00
2023-04-25T01:19:46.014Z,94101.00
2023-04-25T01:20:45.896Z,94103.00
2023-04-25T01:21:45.907Z,94106.00
2023-04-25T01:22:45.858Z,94104.00
2023-04-25T01:23:45.875Z,94108.00
2023-04-25T01:24:45.862Z,94108.00
2023-04-25T01:25:45.860Z,94108.00
2023-04-25T01:26:45.859Z,94110.00
2023-04-25T01:27:45.866Z,94108.00
2023-04-25T01:28:45.916Z,94110.00
2023-04-25T01:29:45.857Z,94106.00
2023-04-25T01:30:45.866Z,94106.00
2023-04-25T01:31:45.875Z,94104.00
2023-04-25T01:32:45.879Z,94103.00
2023-04-25T01:33:45.872Z,94099.00
2023-04-25T01:34:45.834Z,94099.00
2023-04-25T01:35:45.848Z,94099.00
2023-04-25T01:36:45.869Z,94097.00
2023-04-25T01:37:45.843Z,94099.00
2023-04-25T01:38:45.851Z,94097.00
2023-04-25T01:39:45.817Z,94095.00
2023-04-25T01:40:45.844Z,94099.00
2023-04-25T01:41:45.815Z,94097.00
2023-04-25T01:42:45.825Z,94097.00
2023-04-25T01:43:45.805Z,94099.00
2023-04-25T01:44:45.817Z,94097.00
2023-04-25T01:45:45.885Z,94101.00
2023-04-25T01:46:45.824Z,94103.00
2023-04-25T01:47:45.841Z,94103.00
2023-04-25T01:48:45.784Z,94101.00
2023-04-25T01:49:45.865Z,94101.00
2023-04-25T01:50:45.866Z,94101.00
2023-04-25T01:51:45.816Z,94103.00
2023-04-25T01:52:45.784Z,94104.00
2023-04-25T01:53:45.836Z,94104.00
2023-04-25T01:54:45.832Z,94108.00
2023-04-25T01:55:45.767Z,94104.00
2023-04-25T01:56:46.044Z,94108.00
2023-04-25T01:57:45.809Z,94106.00
2023-04-25T01:58:45.769Z,94106.00
2023-04-25T01:59:45.808Z,94106.00
2023-04-25T02:00:45.772Z,94106.00
2023-04-25T02:01:45.810Z,94106.00
2023-04-25T02:02:45.827Z,94106.00
2023-04-25T02:03:45.907Z,94106.00
2023-04-25T02:04:45.826Z,94106.00
2023-04-25T02:05:45.750Z,94106.00
2023-04-25T02:06:45.758Z,94104.00
2023-04-25T02:07:45.791Z,94104.00
2023-04-25T02:08:45.815Z,94103.00
2023-04-25T02:09:45.789Z,94103.00
2023-04-25T02:10:45.754Z,94103.00
2023-04-25T02:11:45.761Z,94104.00
2023-04-25T02:12:45.738Z,94104.00
2023-04-25T02:13:45.740Z,94104.00
2023-04-25T02:14:45.703Z,94103.00
2023-04-25T02:15:45.780Z,94101.00
2023-04-25T02:16:45.798Z,94104.00
2023-04-25T02:17:45.795Z,94103.00
2023-04-25T02:18:45.740Z,94103.00
2023-04-25T02:19:45.710Z,94104.00
2023-04-25T02:20:45.715Z,94103.00
2023-04-25T02:21:46.578Z,94104.00
2023-04-25T02:22:45.756Z,94104.00
2023-04-25T02:23:45.779Z,94103.00
2023-04-25T02:24:45.812Z,94103.00
2023-04-25T02:25:45.815Z,94103.00
2023-04-25T02:26:45.836Z,94106.00
2023-04-25T02:27:45.912Z,94106.00
2023-04-25T02:28:45.922Z,94108.00
2023-04-25T02:29:45.932Z,94108.00
2023-04-25T02:30:45.980Z,94108.00
2023-04-25T02:31:46.089Z,94108.00
2023-04-25T02:32:46.132Z,94110.00
2023-04-25T02:33:46.106Z,94106.00
2023-04-25T02:34:46.112Z,94110.00
2023-04-25T02:35:46.176Z,94106.00
2023-04-25T02:36:46.215Z,94108.00
2023-04-25T02:37:46.283Z,94106.00
2023-04-25T02:38:46.315Z,94108.00
2023-04-25T02:39:46.398Z,94108.00
2023-04-25T02:40:46.443Z,94110.00
2023-04-25T02:41:46.459Z,94114.00
2023-04-25T02:42:46.548Z,94112.00
2023-04-25T02:43:46.572Z,94112.00
2023-04-25T02:44:46.638Z,94114.00
2023-04-25T02:45:46.695Z,94112.00
2023-04-25T02:46:46.875Z,94110.00
2023-04-25T02:47:46.786Z,94110.00
2023-04-25T02:48:46.817Z,94112.00
2023-04-25T02:49:46.866Z,94112.00
2023-04-25T02:50:46.932Z,94112.00
2023-04-25T02:51:46.948Z,94112.00
2023-04-25T02:52:47.157Z,94110.00
2023-04-25T02:53:47.122Z,94114.00
2023-04-25T02:54:47.126Z,94112.00
2023-04-25T02:55:47.164Z,94110.00
2023-04-25T02:56:47.253Z,94110.00
2023-04-25T02:57:47.274Z,94108.00
2023-04-25T02:58:47.306Z,94108.00
2023-04-25T02:59:47.576Z,94108.00
2023-04-25T03:00:47.357Z,94108.00
2023-04-25T03:01:47.341Z,94108.00
2023-04-25T03:02:47.387Z,94110.00
2023-04-25T03:03:47.402Z,94110.00
2023-04-25T03:04:47.495Z,94110.00
2023-04-25T03:05:47.411Z,94108.00
2023-04-25T03:06:47.388Z,94108.00
2023-04-25T03:07:47.404Z,94108.00
2023-04-25T03:08:47.421Z,94104.00
2023-04-25T03:09:47.445Z,94104.00
2023-04-25T03:10:47.459Z,94103.00
2023-04-25T03:11:47.481Z,94101.00
2023-04-25T03:12:47.491Z,94103.00
2023-04-25T03:13:47.514Z,94101.00
2023-04-25T03:14:47.485Z,94099.00
2023-04-25T03:15:47.507Z,94097.00
2023-04-25T03:16:47.641Z,94097.00
2023-04-25T03:17:47.688Z,94095.00
2023-04-25T03:18:47.612Z,94095.00
2023-04-25T03:19:47.686Z,94093.00
2023-04-25T03:20:47.698Z,94095.00
2023-04-25T03:21:47.709Z,94095.00
2023-04-25T03:22:47.737Z,94095.00
2023-04-25T03:23:47.850Z,94095.00
2023-04-25T03:24:47.826Z,94095.00
2023-04-25T03:25:47.795Z,94093.00
2023-04-25T03:26:47.832Z,94091.00
2023-04-25T03:27:47.883Z,94087.00
2023-04-25T03:28:47.862Z,94087.00
2023-04-25T03:29:47.929Z,94089.00
2023-04-25T03:30:47.934Z,94091.00
2023-04-25T03:31:47.993Z,94093.00
2023-04-25T03:32:48.012Z,94093.00
2023-04-25T03:33:48.112Z,94095.00
2023-04-25T03:34:48.010Z,94093.00
2023-04-25T03:35:48.010Z,94089.00
2023-04-25T03:36:48.032Z,94087.00
2023-04-25T03:37:48.057Z,94087.00
2023-04-25T03:38:48.083Z,94085.00
2023-04-25T03:39:48.115Z,94083.00
2023-04-25T03:40:48.123Z,94083.00
2023-04-25T03:41:48.151Z,94081.00
2023-04-25T03:42:48.560Z,94083.00
2023-04-25T03:43:48.447Z,94081.00
2023-04-25T03:44:48.171Z,94083.00
2023-04-25T03:45:48.211Z,94083.00
2023-04-25T03:46:48.189Z,94083.00
2023-04-25T03:47:48.232Z,94085.00
2023-04-25T03:48:48.214Z,94087.00
2023-04-25T03:49:48.202Z,94085.00
2023-04-25T03:50:48.204Z,94085.00
2023-04-25T03:51:48.229Z,94085.00
2023-04-25T03:52:48.237Z,94083.00
2023-04-25T03:53:48.334Z,94085.00
2023-04-25T03:54:48.290Z,94085.00
2023-04-25T03:55:48.302Z,94083.00
2023-04-25T03:56:48.315Z,94083.00
2023-04-25T03:57:48.309Z,94079.00
2023-04-25T03:58:48.373Z,94081.00
2023-04-25T03:59:48.339Z,94079.00
2023-04-25T04:00:48.356Z,94079.00
2023-04-25T04:01:48.361Z,94079.00
2023-04-25T04:02:48.467Z,94079.00
2023-04-25T04:03:48.585Z,94077.00
2023-04-25T04:04:48.686Z,94073.00
2023-04-25T04:05:48.498Z,94075.00
2023-04-25T04:06:48.504Z,94071.00
2023-04-25T04:07:48.530Z,94075.00
2023-04-25T04:08:48.552Z,94073.00
2023-04-25T04:09:48.606Z,94077.00
2023-04-25T04:10:48.640Z,94075.00
2023-04-25T04:11:48.649Z,94077.00
2023-04-25T04:12:48.681Z,94075.00
2023-04-25T04:13:49.042Z,94079.00
2023-04-25T04:14:48.711Z,94079.00
2023-04-25T04:15:48.722Z,94081.00
2023-04-25T04:16:48.753Z,94081.00
2023-04-25T04:17:48.888Z,94079.00
2023-04-25T04:18:48.780Z,94079.00
2023-04-25T04:19:48.822Z,94079.00
2023-04-25T04:20:48.830Z,94083.00
2023-04-25T04:21:48.891Z,94083.00
2023-04-25T04:22:48.906Z,94081.00
2023-04-25T04:23:49.159Z,94083.00
2023-04-25T04:24:49.010Z,94079.00
2023-04-25T04:25:49.028Z,94081.00
2023-04-25T04:26:49.098Z,94079.00
2023-04-25T04:27:49.089Z,94077.00
2023-04-25T04:28:49.122Z,94079.00
2023-04-25T04:29:49.152Z,94077.00
2023-04-25T04:30:49.224Z,94073.00
2023-04-25T04:31:49.260Z,94075.00
2023-04-25T04:32:50.602Z,94073.00
2023-04-25T04:33:49.569Z,94073.00
2023-04-25T04:34:49.399Z,94073.00
2023-04-25T04:35:49.376Z,94075.00
2023-04-25T04:36:49.423Z,94075.00
2023-04-25T04:37:49.442Z,94077.00
2023-04-25T04:38:49.450Z,94073.00
2023-04-25T04:39:49.480Z,94077.00
2023-04-25T04:40:49.485Z,94075.00
2023-04-25T04:41:49.553Z,94073.00
2023-04-25T04:42:49.551Z,94075.00
2023-04-25T04:43:49.733Z,94073.00
2023-04-25T04:44:49.576Z,94075.00
2023-04-25T04:45:49.559Z,94075.00
2023-04-25T04:46:49.727Z,94077.00
2023-04-25T04:47:49.723Z,94075.00
2023-04-25T04:48:49.597Z,94077.00
2023-04-25T04:49:49.624Z,94073.00
2023-04-25T04:50:49.627Z,94073.00
2023-04-25T04:51:49.725Z,94075.00
2023-04-25T04:52:49.725Z,94079.00
2023-04-25T04:53:49.959Z,94079.00
2023-04-25T04:54:49.761Z,94081.00
2023-04-25T04:55:49.769Z,94083.00
2023-04-25T04:56:49.800Z,94081.00
2023-04-25T04:57:49.934Z,94081.00
2023-04-25T04:58:49.888Z,94077.00
2023-04-25T04:59:51.672Z,94079.00
2023-04-25T05:00:49.999Z,94077.00
2023-04-25T05:01:50.051Z,94075.00
2023-04-25T05:02:50.231Z,94071.00
2023-04-25T05:03:50.651Z,94073.00
2023-04-25T05:04:50.362Z,94071.00
2023-04-25T05:05:50.276Z,94071.00
2023-04-25T05:06:50.297Z,94071.00
2023-04-25T05:07:50.362Z,94067.00
2023-04-25T05:08:50.416Z,94071.00
2023-04-25T05:09:50.453Z,94069.00
2023-04-25T05:10:50.452Z,94073.00
2023-04-25T05:11:50.541Z,94071.00
2023-04-25T05:12:50.510Z,94073.00
2023-04-25T05:13:50.755Z,94077.00
2023-04-25T05:14:50.637Z,94077.00
2023-04-25T05:15:50.648Z,94077.00
2023-04-25T05:16:50.691Z,94079.00
2023-04-25T05:17:51.180Z,94073.00
2023-04-25T05:18:50.787Z,94077.00
2023-04-25T05:19:50.785Z,94071.00
2023-04-25T05:20:50.870Z,94067.00
2023-04-25T05:21:50.934Z,94069.00
2023-04-25T05:22:51.118Z,94069.00
2023-04-25T05:23:51.146Z,94065.00
2023-04-25T05:24:51.069Z,94065.00
2023-04-25T05:25:51.100Z,94071.00
2023-04-25T05:26:51.218Z,94065.00
2023-04-25T05:27:51.188Z,94061.00
2023-04-25T05:28:51.257Z,94067.00
2023-04-25T05:29:51.309Z,94057.00
2023-04-25T05:30:51.526Z,94057.00
2023-04-25T05:31:51.446Z,94053.00
2023-04-25T05:32:51.687Z,94053.00
2023-04-25T05:33:51.868Z,94055.00
2023-04-25T05:34:51.646Z,94057.00
2023-04-25T05:35:51.631Z,94059.00
2023-04-25T05:36:51.735Z,94059.00
2023-04-25T05:37:52.155Z,94055.00
2023-04-25T05:38:51.751Z,94053.00
2023-04-25T05:39:51.812Z,94048.00
2023-04-25T05:40:52.219Z,94049.00
2023-04-25T05:41:51.911Z,94049.00
2023-04-25T05:42:52.679Z,94049.00
2023-04-25T05:43:53.014Z,94049.00
2023-04-25T05:44:52.092Z,94051.00
2023-04-25T05:45:52.225Z,94053.00
2023-04-25T05:46:52.229Z,94053.00
2023-04-25T05:47:53.269Z,94053.00
2023-04-25T05:48:52.370Z,94049.00
2023-04-25T05:49:52.410Z,94049.00
2023-04-25T05:50:52.701Z,94042.00
2023-04-25T05:51:52.510Z,94040.00
2023-04-25T05:52:52.475Z,94034.00
2023-04-25T05:53:52.812Z,94026.00
2023-04-25T05:54:52.566Z,94022.00
2023-04-25T05:55:52.559Z,94016.00
2023-04-25T05:56:52.551Z,94014.00
2023-04-25T05:57:52.559Z,94018.00
2023-04-25T05:58:52.594Z,94018.00
2023-04-25T05:59:52.598Z,94020.00
2023-04-25T06:00:52.698Z,94022.00
2023-04-25T06:01:52.647Z,94022.00
2023-04-25T06:02:52.706Z,94022.00
2023-04-25T06:03:53.127Z,94028.00
2023-04-25T06:04:52.882Z,94028.00
2023-04-25T06:05:52.834Z,94028.00
2023-04-25T06:06:52.819Z,94026.00
2023-04-25T06:07:52.903Z,94030.00
2023-04-25T06:08:52.982Z,94028.00
2023-04-25T06:09:52.985Z,94028.00
2023-04-25T06:10:53.127Z,94028.00
2023-04-25T06:11:53.100Z,94030.00
2023-04-25T06:12:54.163Z,94030.00
2023-04-25T06:13:53.602Z,94024.00
2023-04-25T06:14:53.251Z,94024.00
2023-04-25T06:15:53.339Z,94020.00
2023-04-25T06:16:53.442Z,94024.00
2023-04-25T06:17:53.427Z,94024.00
2023-04-25T06:18:53.450Z,94028.00
2023-04-25T06:19:53.537Z,94032.00
2023-04-25T06:20:53.560Z,94034.00
2023-04-25T06:21:53.708Z,94032.00
2023-04-25T06:22:53.710Z,94026.00
2023-04-25T06:23:53.901Z,94026.00
2023-04-25T06:24:53.772Z,94022.00
2023-04-25T06:25:53.807Z,94024.00
2023-04-25T06:26:53.845Z,94022.00
2023-04-25T06:27:53.901Z,94024.00
2023-04-25T06:28:53.946Z,94020.00
2023-04-25T06:29:53.993Z,94020.00
2023-04-25T06:30:54.055Z,94020.00
2023-04-25T06:31:54.156Z,94022.00
2023-04-25T06:32:54.269Z,94024.00
2023-04-25T06:33:54.209Z,94026.00
2023-04-25T06:34:54.200Z,94024.00
2023-04-25T06:35:54.265Z,94024.00
2023-04-25T06:36:54.352Z,94024.00
2023-04-25T06:37:54.677Z,94024.00
2023-04-25T06:38:54.426Z,94022.00
2023-04-25T06:39:54.447Z,94020.00
2023-04-25T06:40:54.513Z,94024.00
2023-04-25T06:41:54.564Z,94022.00
2023-04-25T06:42:54.741Z,94018.00
2023-04-25T06:43:54.673Z,94020.00
2023-04-25T06:44:54.729Z,94018.00
2023-04-25T06:45:54.758Z,94018.00
2023-04-25T06:46:54.883Z,94014.00
2023-04-25T06:47:54.905Z,94010.00
2023-04-25T06:48:54.956Z,94008.00
2023-04-25T06:49:55.031Z,94008.00
2023-04-25T06:50:55.031Z,94006.00
2023-04-25T06:51:55.169Z,94006.00
2023-04-25T06:52:55.114Z,94006.00
2023-04-25T06:53:55.166Z,94004.00
2023-04-25T06:54:55.217Z,94002.00
2023-04-25T06:55:55.654Z,94002.00
2023-04-25T06:56:55.403Z,94002.00
2023-04-25T06:57:55.762Z,94001.00
2023-04-25T06:58:55.458Z,93999.00
2023-04-25T06:59:55.441Z,93995.00
2023-04-25T07:00:55.521Z,93993.00
2023-04-25T07:01:55.543Z,93997.00
2023-04-25T07:02:55.664Z,93991.00
2023-04-25T07:03:55.654Z,93993.00
2023-04-25T07:04:55.666Z,93991.00
2023-04-25T07:05:55.655Z,93993.00
2023-04-25T07:06:55.677Z,93993.00
2023-04-25T07:07:55.703Z,93993.00
2023-04-25T07:08:55.742Z,93991.00
2023-04-25T07:09:55.737Z,93991.00
2023-04-25T07:10:55.764Z,93989.00
2023-04-25T07:11:55.760Z,93989.00
2023-04-25T07:12:56.164Z,93989.00
2023-04-25T07:13:55.793Z,93993.00
2023-04-25T07:14:55.802Z,93995.00
2023-04-25T07:15:57.385Z,93997.00
2023-04-25T07:16:55.847Z,93993.00
2023-04-25T07:17:56.189Z,93995.00
2023-04-25T07:18:55.819Z,93989.00
2023-04-25T07:19:55.800Z,93989.00
2023-04-25T07:20:55.913Z,93991.00
2023-04-25T07:21:55.874Z,93985.00
2023-04-25T07:22:55.914Z,93985.00
2023-04-25T07:23:56.148Z,93989.00
2023-04-25T07:24:55.982Z,93987.00
2023-04-25T07:25:56.035Z,93985.00
2023-04-25T07:26:56.064Z,93985.00
2023-04-25T07:27:56.158Z,93987.00
2023-04-25T07:28:56.195Z,93987.00
2023-04-25T07:29:56.269Z,93987.00
2023-04-25T07:30:56.449Z,93989.00
2023-04-25T07:31:56.384Z,93989.00
2023-04-25T07:32:56.831Z,93989.00
2023-04-25T07:33:56.414Z,93991.00
2023-04-25T07:34:56.494Z,93993.00
2023-04-25T07:35:56.689Z,93991.00
2023-04-25T07:36:56.523Z,93991.00
2023-04-25T07:37:56.508Z,93991.00
2023-04-25T07:38:56.699Z,93989.00
2023-04-25T07:39:56.543Z,93987.00
2023-04-25T07:40:56.758Z,93989.00
2023-04-25T07:41:56.564Z,93987.00
2023-04-25T07:42:56.618Z,93987.00
2023-04-25T07:43:56.621Z,93987.00
2023-04-25T07:44:56.702Z,93987.00
2023-04-25T07:45:56.775Z,93987.00
2023-04-25T07:46:56.725Z,93987.00
2023-04-25T07:47:56.696Z,93989.00
2023-04-25T07:48:57.182Z,93987.00
2023-04-25T07:49:56.795Z,93987.00
2023-04-25T07:50:56.713Z,93989.00
2023-04-25T07:51:56.748Z,93989.00
2023-04-25T07:52:57.695Z,93989.00
2023-04-25T07:53:57.273Z,93985.00
2023-04-25T07:54:56.731Z,93989.00
2023-04-25T07:55:56.759Z,93991.00
2023-04-25T07:56:56.799Z,93991.00
2023-04-25T07:57:56.818Z,93989.00
2023-04-25T07:58:57.280Z,93989.00
2023-04-25T07:59:56.897Z,93989.00
2023-04-25T08:00:57.201Z,93989.00
2023-04-25T08:01:59.757Z,93987.00
2023-04-25T08:02:57.133Z,93989.00
2023-04-25T08:03:57.120Z,93985.00
2023-04-25T08:04:57.036Z,93987.00
2023-04-25T08:05:58.005Z,93987.00
2023-04-25T08:06:56.957Z,93987.00
2023-04-25T08:07:56.975Z,93991.00
2023-04-25T08:08:57.206Z,93987.00
2023-04-25T08:09:56.944Z,93993.00
2023-04-25T08:10:57.203Z,93993.00
2023-04-25T08:11:57.074Z,93991.00
2023-04-25T08:12:56.906Z,93991.00
2023-04-25T08:13:56.913Z,93989.00
2023-04-25T08:14:56.883Z,93989.00
2023-04-25T08:15:57.785Z,93989.00
2023-04-25T08:16:56.909Z,93987.00
2023-04-25T08:17:56.954Z,93987.00
2023-04-25T08:18:56.961Z,93987.00
2023-04-25T08:19:57.195Z,93985.00
2023-04-25T08:20:57.062Z,93983.00
2023-04-25T08:21:57.245Z,93985.00
2023-04-25T08:22:57.687Z,93987.00
2023-04-25T08:23:57.211Z,93983.00
2023-04-25T08:24:57.211Z,93983.00
2023-04-25T08:25:57.292Z,93985.00
2023-04-25T08:26:57.386Z,93983.00
2023-04-25T08:27:57.490Z,93981.00
2023-04-25T08:28:57.702Z,93979.00
2023-04-25T08:29:57.417Z,93981.00
2023-04-25T08:30:57.455Z,93981.00
2023-04-25T08:31:57.324Z,93981.00
2023-04-25T08:32:57.386Z,93979.00
2023-04-25T08:33:57.352Z,93979.00
2023-04-25T08:34:57.376Z,93981.00
2023-04-25T08:35:58.325Z,93977.00
2023-04-25T08:36:57.361Z,93975.00
2023-04-25T08:37:57.373Z,93975.00
2023-04-25T08:38:57.906Z,93971.00
2023-04-25T08:39:57.497Z,93971.00
2023-04-25T08:41:00.230Z,93969.00
2023-04-25T08:41:57.539Z,93973.00
2023-04-25T08:42:57.479Z,93977.00
2023-04-25T08:43:57.719Z,93979.00
2023-04-25T08:44:57.530Z,93979.00
2023-04-25T08:45:57.540Z,93979.00
2023-04-25T08:46:57.498Z,93977.00
2023-04-25T08:47:57.517Z,93979.00
2023-04-25T08:48:58.135Z,93979.00
2023-04-25T08:49:57.427Z,93977.00
2023-04-25T08:50:58.213Z,93975.00
2023-04-25T08:51:57.478Z,93975.00
2023-04-25T08:52:59.214Z,93975.00
2023-04-25T08:53:58.861Z,93973.00
2023-04-25T08:54:58.418Z,93973.00
2023-04-25T08:55:57.484Z,93973.00
2023-04-25T08:56:57.386Z,93973.00
2023-04-25T08:57:57.393Z,93973.00
2023-04-25T08:58:57.721Z,93975.00
2023-04-25T08:59:57.398Z,93975.00
2023-04-25T09:00:57.428Z,93975.00
2023-04-25T09:01:57.379Z,93975.00
2023-04-25T09:02:57.553Z,93973.00
2023-04-25T09:03:57.418Z,93973.00
2023-04-25T09:04:57.331Z,93973.00
2023-04-25T09:05:57.348Z,93973.00
2023-04-25T09:06:57.346Z,93971.00
2023-04-25T09:07:57.302Z,93969.00
2023-04-25T09:08:57.457Z,93969.00
2023-04-25T09:09:57.310Z,93965.00
2023-04-25T09:10:57.315Z,93965.00
2023-04-25T09:11:57.359Z,93963.00
2023-04-25T09:12:57.300Z,93965.00
2023-04-25T09:13:57.366Z,93967.00
2023-04-25T09:14:57.377Z,93969.00
2023-04-25T09:15:57.512Z,93969.00
2023-04-25T09:16:57.518Z,93969.00
2023-04-25T09:17:57.595Z,93969.00
2023-04-25T09:18:57.593Z,93971.00
2023-04-25T09:19:57.629Z,93971.00
2023-04-25T09:21:01.787Z,93975.00
2023-04-25T09:21:58.748Z,93973.00
2023-04-25T09:22:57.672Z,93973.00
2023-04-25T09:23:57.726Z,93973.00
2023-04-25T09:24:57.696Z,93973.00
2023-04-25T09:25:57.697Z,93971.00
2023-04-25T09:26:57.676Z,93973.00
2023-04-25T09:27:57.638Z,93971.00
2023-04-25T09:28:57.646Z,93969.00
2023-04-25T09:29:57.688Z,93967.00
2023-04-25T09:30:57.645Z,93969.00
2023-04-25T09:31:57.793Z,93971.00
2023-04-25T09:32:57.631Z,93975.00
2023-04-25T09:34:00.492Z,93973.00
2023-04-25T09:34:57.656Z,93971.00
2023-04-25T09:35:57.780Z,93969.00
2023-04-25T09:36:58.263Z,93971.00
2023-04-25T09:37:57.634Z,93971.00
2023-04-25T09:38:57.737Z,93973.00
2023-04-25T09:39:57.610Z,93975.00
2023-04-25T09:40:57.572Z,93975.00
2023-04-25T09:41:57.621Z,93975.00
2023-04-25T09:42:57.603Z,93977.00
2023-04-25T09:43:57.758Z,93977.00
2023-04-25T09:44:57.553Z,93981.00
2023-04-25T09:45:58.859Z,93981.00
2023-04-25T09:46:57.765Z,93983.00
2023-04-25T09:47:57.594Z,93985.00
2023-04-25T09:48:57.808Z,93985.00
2023-04-25T09:49:57.551Z,93987.00
2023-04-25T09:50:57.515Z,93989.00
2023-04-25T09:51:57.809Z,93987.00
2023-04-25T09:52:57.501Z,93989.00
2023-04-25T09:53:57.522Z,93987.00
2023-04-25T09:54:57.485Z,93989.00
2023-04-25T09:55:58.344Z,93989.00
2023-04-25T09:56:57.838Z,93995.00
2023-04-25T09:57:57.517Z,93993.00
2023-04-25T09:58:57.479Z,93991.00
2023-04-25T09:59:57.459Z,93991.00
2023-04-25T10:00:57.451Z,93991.00
2023-04-25T10:01:57.422Z,93989.00
2023-04-25T10:02:57.511Z,93989.00
2023-04-25T10:03:57.859Z,93989.00
2023-04-25T10:04:58.325Z,93987.00
2023-04-25T10:05:57.405Z,93985.00
2023-04-25T10:06:57.737Z,93983.00
2023-04-25T10:07:57.406Z,93983.00
2023-04-25T10:08:57.406Z,93981.00
2023-04-25T10:09:57.432Z,93981.00
2023-04-25T10:10:57.375Z,93979.00
2023-04-25T10:11:57.379Z,93977.00
2023-04-25T10:12:57.366Z,93977.00
2023-04-25T10:13:57.349Z,93977.00
2023-04-25T10:14:57.372Z,93975.00
2023-04-25T10:15:57.590Z,93971.00
2023-04-25T10:16:57.349Z,93969.00
2023-04-25T10:17:57.375Z,93967.00
2023-04-25T10:19:00.248Z,93969.00
2023-04-25T10:19:58.294Z,93969.00
2023-04-25T10:20:57.349Z,93963.00
2023-04-25T10:21:57.772Z,93963.00
2023-04-25T10:22:57.371Z,93961.00
2023-04-25T10:23:57.300Z,93963.00
2023-04-25T10:24:57.387Z,93957.00
2023-04-25T10:25:58.247Z,93955.00
2023-04-25T10:26:57.730Z,93955.00
2023-04-25T10:27:58.287Z,93952.00
2023-04-25T10:28:57.270Z,93954.00
2023-04-25T10:29:57.289Z,93952.00
2023-04-25T10:30:57.462Z,93954.00
2023-04-25T10:31:57.317Z,93948.00
2023-04-25T10:32:57.271Z,93950.00
2023-04-25T10:33:57.238Z,93952.00
2023-04-25T10:34:57.224Z,93944.00
2023-04-25T10:35:57.218Z,93944.00
2023-04-25T10:36:57.278Z,93944.00
2023-04-25T10:37:57.232Z,93944.00
2023-04-25T10:38:57.208Z,93942.00
2023-04-25T10:39:57.248Z,93944.00
2023-04-25T10:40:57.253Z,93944.00
2023-04-25T10:41:57.181Z,93944.00
2023-04-25T10:42:57.238Z,93944.00
2023-04-25T10:43:57.194Z,93942.00
2023-04-25T10:44:57.806Z,93938.00
2023-04-25T10:45:57.203Z,93938.00
2023-04-25T10:46:57.212Z,93942.00
2023-04-25T10:47:57.224Z,93940.00
2023-04-25T10:48:57.833Z,93936.00
2023-04-25T10:49:57.275Z,93938.00
2023-04-25T10:50:57.250Z,93938.00
2023-04-25T10:51:57.124Z,93936.00
2023-04-25T10:52:57.103Z,93932.00
2023-04-25T10:53:57.097Z,93934.00
2023-04-25T10:54:57.154Z,93934.00
2023-04-25T10:55:57.274Z,93932.00
2023-04-25T10:56:57.259Z,93932.00
2023-04-25T10:58:57.551Z,93934.00
2023-04-25T10:59:57.420Z,93932.00
2023-04-25T11:00:57.900Z,93930.00
2023-04-25T11:01:57.658Z,93932.00
2023-04-25T11:02:57.681Z,93928.00
2023-04-25T11:03:57.741Z,93928.00
2023-04-25T11:04:57.661Z,93926.00
2023-04-25T11:05:58.532Z,93924.00
2023-04-25T11:07:04.540Z,93924.00
2023-04-25T11:08:07.124Z,93928.00
2023-04-25T11:10:16.978Z,93928.00
2023-04-25T11:11:16.708Z,93928.00
2023-04-25T11:12:16.920Z,93926.00
2023-04-25T11:13:16.718Z,93926.00
2023-04-25T11:14:16.709Z,93932.00
2023-04-25T11:15:16.963Z,93934.00
2023-04-25T11:16:23.659Z,93934.00
2023-04-25T11:17:17.715Z,93930.00
2023-04-25T11:18:16.718Z,93934.00
2023-04-25T11:19:16.667Z,93928.00
2023-04-25T11:20:16.759Z,93926.00
2023-04-25T11:21:16.673Z,93932.00
2023-04-25T11:22:16.759Z,93942.00
2023-04-25T11:23:16.651Z,93948.00
2023-04-25T11:24:16.641Z,93955.00
2023-04-25T11:25:16.627Z,93954.00
2023-04-25T11:26:16.695Z,93955.00
2023-04-25T11:27:16.959Z,93954.00
2023-04-25T11:28:16.765Z,93950.00
2023-04-25T11:29:16.854Z,93950.00
2023-04-25T11:30:16.900Z,93942.00
2023-04-25T11:31:16.910Z,93948.00
2023-04-25T11:32:19.462Z,93965.00
2023-04-25T11:33:17.030Z,93963.00
2023-04-25T11:34:16.977Z,93961.00
2023-04-25T11:35:16.950Z,93959.00
2023-04-25T11:36:16.973Z,93965.00
2023-04-25T11:37:17.432Z,93961.00
2023-04-25T11:38:16.931Z,93955.00
2023-04-25T11:39:16.893Z,93955.00
2023-04-25T11:40:16.957Z,93955.00
2023-04-25T11:41:16.924Z,93959.00
2023-04-25T11:42:16.900Z,93961.00
2023-04-25T11:43:17.103Z,93957.00
2023-04-25T11:44:16.906Z,93961.00
2023-04-25T11:45:16.985Z,93969.00
2023-04-25T11:46:17.045Z,93961.00
2023-04-25T11:47:16.875Z,93965.00